Time;durP1;ratioP1;P1;durP2;ratioP2;P2;SDS_P1;SDS_P2;PMS_P1;PMS_P2;Temp;Humidity;BMP_temperature;BMP_pressure;BME280_temperature;BME280_humidity;BME280_pressure;Samples;Min_cycle;Max_cycle;Signal;HPM_P1;HPM_P2
2022/11/19 00:00:04;;;;;;;31.30;29.80;;;9.00;99.90;;;;;;4990005;28;20458;-75
2022/11/19 00:02:31;;;;;;;30.37;28.97;;;8.90;99.90;;;;;;4990225;28;20446;-74
2022/11/19 00:04:57;;;;;;;29.70;28.40;;;8.90;99.90;;;;;;4990388;28;20646;-74
2022/11/19 00:07:24;;;;;;;30.73;29.33;;;8.80;99.90;;;;;;4990326;28;20451;-74
2022/11/19 00:09:51;;;;;;;30.93;29.53;;;8.80;99.90;;;;;;4990173;28;20486;-73
2022/11/19 00:15:04;;;;;;;30.77;29.47;;;8.80;99.90;;;;;;4993840;28;20429;-73
2022/11/19 00:17:30;;;;;;;31.30;29.90;;;8.70;99.90;;;;;;4993485;28;21024;-73
2022/11/19 00:19:57;;;;;;;30.87;29.47;;;8.70;99.90;;;;;;4993377;28;20470;-73
2022/11/19 00:22:24;;;;;;;31.17;29.67;;;8.70;99.90;;;;;;4993767;28;20937;-73
2022/11/19 00:24:51;;;;;;;32.53;30.33;;;8.70;99.90;;;;;;4993590;28;20462;-72
2022/11/19 00:27:17;;;;;;;30.53;29.17;;;8.70;99.90;;;;;;4993934;28;20458;-74
2022/11/19 00:29:44;;;;;;;29.83;28.57;;;8.60;99.90;;;;;;4993567;28;20451;-73
2022/11/19 00:32:12;;;;;;;30.43;29.13;;;8.60;99.90;;;;;;4993668;28;20450;-73
2022/11/19 00:34:39;;;;;;;30.73;29.43;;;8.60;99.90;;;;;;4993593;28;20454;-72
2022/11/19 00:37:06;;;;;;;30.40;29.13;;;8.70;99.90;;;;;;4993350;28;20451;-72
2022/11/19 00:39:32;;;;;;;30.97;29.57;;;8.60;99.90;;;;;;4993258;28;20470;-73
2022/11/19 00:41:59;;;;;;;30.03;28.83;;;8.70;99.90;;;;;;4993222;28;20447;-73
2022/11/19 00:44:26;;;;;;;30.50;29.10;;;8.80;99.90;;;;;;4993177;28;20447;-73
2022/11/19 00:46:52;;;;;;;29.80;28.50;;;8.70;99.90;;;;;;4993500;28;20913;-73
2022/11/19 00:49:20;;;;;;;31.30;29.90;;;8.70;99.90;;;;;;4993155;28;20459;-74
2022/11/19 00:51:47;;;;;;;30.00;28.63;;;8.70;99.90;;;;;;4993023;28;20489;-73
2022/11/19 00:54:14;;;;;;;29.80;28.50;;;8.70;99.90;;;;;;4993005;28;20451;-73
2022/11/19 00:56:41;;;;;;;29.40;28.10;;;8.60;99.90;;;;;;4993161;28;20447;-73
2022/11/19 00:59:08;;;;;;;28.37;27.17;;;8.60;99.90;;;;;;4993307;28;20458;-71
2022/11/19 01:01:34;;;;;;;29.20;27.80;;;8.60;99.90;;;;;;4992868;28;20447;-74
2022/11/19 01:04:01;;;;;;;28.50;27.30;;;8.50;99.90;;;;;;4992952;28;20451;-72
2022/11/19 01:06:29;;;;;;;28.10;26.80;;;8.50;99.90;;;;;;4992848;28;20451;-72
2022/11/19 01:08:57;;;;;;;27.53;26.17;;;8.40;99.90;;;;;;4992871;28;20446;-73
2022/11/19 01:11:26;;;;;;;28.17;26.87;;;8.40;99.90;;;;;;4992741;28;20486;-73
2022/11/19 01:13:53;;;;;;;27.90;26.63;;;8.50;99.90;;;;;;4992863;28;20458;-73
2022/11/19 01:16:23;;;;;;;28.67;27.37;;;8.50;99.90;;;;;;4992666;28;20450;-73
2022/11/19 01:18:50;;;;;;;28.93;27.63;;;8.50;99.90;;;;;;4992605;28;20473;-72
2022/11/19 01:21:18;;;;;;;27.40;26.00;;;8.50;99.90;;;;;;4992354;28;20482;-74
2022/11/19 02:18:30;;;;;;;21.40;20.50;;;8.40;99.90;;;;;;5006911;28;20517;-77
2022/11/19 02:21:08;;;;;;;21.40;20.50;;;8.30;99.90;;;;;;5010957;28;20452;-78
2022/11/19 02:24:05;;;;;;;21.10;20.23;;;8.30;99.90;;;;;;5010594;28;20954;-77
2022/11/19 02:27:11;;;;;;;20.10;19.20;;;8.30;99.90;;;;;;5010538;28;20453;-77
2022/11/19 02:30:07;;;;;;;20.93;19.63;;;8.20;99.90;;;;;;5010091;28;20441;-77
2022/11/19 02:32:40;;;;;;;20.30;19.40;;;8.20;99.90;;;;;;4982551;28;20541;-77
2022/11/19 02:35:17;;;;;;;19.77;18.97;;;8.30;99.90;;;;;;4999312;28;20446;-77
2022/11/19 02:37:49;;;;;;;19.20;18.50;;;8.30;99.90;;;;;;4999817;28;20959;-76
2022/11/19 02:40:22;;;;;;;18.87;18.17;;;8.30;99.90;;;;;;4998772;28;20445;-78
2022/11/19 02:42:56;;;;;;;18.93;18.13;;;8.40;99.90;;;;;;4998276;28;20451;-78
2022/11/19 02:45:30;;;;;;;18.13;17.30;;;8.30;99.90;;;;;;4998010;28;20449;-77
2022/11/19 02:48:01;;;;;;;17.60;16.80;;;8.40;99.90;;;;;;4998834;28;20714;-78
2022/11/19 02:50:31;;;;;;;17.50;16.53;;;8.40;99.90;;;;;;4997926;28;21035;-77
2022/11/19 02:52:58;;;;;;;16.87;16.17;;;8.50;99.90;;;;;;4998906;28;20460;-77
2022/11/19 02:55:25;;;;;;;16.70;16.07;;;8.60;99.90;;;;;;4999608;28;20442;-76
2022/11/19 02:57:57;;;;;;;16.90;16.20;;;8.60;99.90;;;;;;4998044;28;20439;-76
2022/11/19 03:06:01;;;;;;;16.07;15.37;;;8.70;99.90;;;;;;4998634;28;20458;-76
2022/11/19 03:08:28;;;;;;;16.97;16.03;;;8.70;99.90;;;;;;4997446;28;20803;-76
2022/11/19 03:11:05;;;;;;;16.20;15.50;;;8.70;99.90;;;;;;4998822;28;20484;-77
2022/11/19 03:16:41;;;;;;;16.57;15.87;;;8.80;99.90;;;;;;4980343;28;20459;-76
2022/11/19 03:19:17;;;;;;;16.10;15.50;;;8.80;99.90;;;;;;4979948;28;20446;-76
2022/11/19 03:21:49;;;;;;;16.27;15.67;;;8.90;99.90;;;;;;4979935;28;20445;-77
2022/11/19 03:24:23;;;;;;;16.60;15.90;;;8.90;99.90;;;;;;4978902;28;20439;-77
2022/11/19 03:26:54;;;;;;;15.50;14.90;;;8.90;99.90;;;;;;4978029;28;20463;-77
2022/11/19 03:29:23;;;;;;;16.60;15.80;;;9.00;99.90;;;;;;4978590;28;20949;-77
2022/11/19 03:31:58;;;;;;;16.20;15.50;;;9.00;99.90;;;;;;4978042;28;20486;-77
2022/11/19 03:34:28;;;;;;;16.00;15.30;;;9.00;99.90;;;;;;4977724;28;20446;-78
2022/11/19 03:36:58;;;;;;;16.60;15.90;;;9.20;99.90;;;;;;4978592;28;20454;-77
2022/11/19 03:39:25;;;;;;;15.97;15.37;;;9.30;99.90;;;;;;4977846;28;20452;-77
2022/11/19 03:41:54;;;;;;;15.90;15.30;;;9.30;99.90;;;;;;4978083;28;20993;-77
2022/11/19 03:44:25;;;;;;;16.00;15.40;;;9.30;99.90;;;;;;4978468;28;20438;-77
2022/11/19 03:46:59;;;;;;;15.43;14.83;;;9.40;99.90;;;;;;4981116;28;20474;-77
2022/11/19 03:49:31;;;;;;;16.23;15.53;;;9.40;99.90;;;;;;4981425;28;20451;-77
2022/11/19 03:52:02;;;;;;;15.20;14.50;;;9.00;99.90;;;;;;4982315;28;20800;-77
2022/11/19 03:54:29;;;;;;;15.30;14.70;;;9.00;99.90;;;;;;4983442;28;20449;-76
2022/11/19 03:56:58;;;;;;;15.57;14.87;;;9.00;99.90;;;;;;4982040;28;20447;-76
2022/11/19 03:59:26;;;;;;;15.17;14.67;;;8.90;99.90;;;;;;4981451;28;20497;-76
2022/11/19 04:01:57;;;;;;;15.43;14.83;;;8.90;99.90;;;;;;4982873;28;20446;-76
2022/11/19 04:04:35;;;;;;;16.43;15.53;;;8.80;99.90;;;;;;4983063;28;20458;-77
2022/11/19 04:07:02;;;;;;;15.70;15.10;;;8.90;99.90;;;;;;4982962;28;20439;-77
2022/11/19 04:09:29;;;;;;;15.00;14.50;;;9.00;99.90;;;;;;4981082;28;20499;-76
2022/11/19 04:11:56;;;;;;;14.90;14.30;;;9.00;99.90;;;;;;4982281;28;21202;-77
2022/11/19 04:14:22;;;;;;;15.10;14.50;;;9.20;99.90;;;;;;4982689;28;20440;-77
2022/11/19 04:16:49;;;;;;;15.43;14.83;;;9.20;99.90;;;;;;4981084;28;20479;-76
2022/11/19 04:19:17;;;;;;;15.63;14.83;;;9.20;99.90;;;;;;4982255;28;20920;-77
2022/11/19 04:21:44;;;;;;;15.23;14.63;;;9.10;99.90;;;;;;4982896;28;20530;-78
2022/11/19 04:24:12;;;;;;;15.70;15.10;;;9.00;99.90;;;;;;4982834;28;20834;-77
2022/11/19 04:26:39;;;;;;;15.27;14.60;;;8.90;99.90;;;;;;4981957;28;20443;-78
2022/11/19 04:29:05;;;;;;;15.83;15.23;;;9.00;99.90;;;;;;4981125;28;20434;-78
2022/11/19 04:31:32;;;;;;;17.30;16.60;;;9.00;99.90;;;;;;4980881;28;20482;-75
2022/11/19 04:33:59;;;;;;;18.40;17.50;;;8.80;99.90;;;;;;4981712;28;20443;-76
2022/11/19 04:36:27;;;;;;;18.30;17.60;;;8.90;99.90;;;;;;4988633;28;20821;-75
2022/11/19 04:38:54;;;;;;;20.03;18.93;;;8.80;99.90;;;;;;4992650;28;20458;-76
2022/11/19 04:41:20;;;;;;;19.80;18.80;;;8.70;99.90;;;;;;4993005;28;20450;-75
2022/11/19 04:43:47;;;;;;;18.80;18.00;;;8.70;99.90;;;;;;4992824;28;20447;-75
2022/11/19 04:46:14;;;;;;;19.60;18.70;;;8.60;99.90;;;;;;4992489;28;20814;-75
2022/11/19 04:48:40;;;;;;;19.57;18.77;;;8.60;99.90;;;;;;4992417;28;20992;-75
2022/11/19 04:51:07;;;;;;;19.67;18.80;;;8.60;99.90;;;;;;4992620;28;20485;-74
2022/11/19 04:53:35;;;;;;;19.03;18.23;;;8.50;99.90;;;;;;4992747;28;20443;-75
2022/11/19 04:56:02;;;;;;;19.10;18.30;;;8.50;99.90;;;;;;4992613;28;20445;-75
2022/11/19 04:58:29;;;;;;;18.60;17.70;;;8.50;99.90;;;;;;4991349;28;20461;-75
2022/11/19 05:00:55;;;;;;;19.07;18.17;;;8.40;99.90;;;;;;4992391;28;20980;-75
2022/11/19 05:03:22;;;;;;;18.73;17.93;;;8.30;99.90;;;;;;4992278;28;20455;-75
2022/11/19 05:05:49;;;;;;;17.93;17.13;;;8.40;99.90;;;;;;4992642;28;20459;-74
2022/11/19 05:08:16;;;;;;;18.17;17.37;;;8.40;99.90;;;;;;4992080;28;20470;-75
2022/11/19 05:10:45;;;;;;;18.80;17.87;;;8.40;99.90;;;;;;4992004;28;20447;-75
2022/11/19 05:13:11;;;;;;;18.13;17.33;;;8.40;99.90;;;;;;4992044;28;20454;-75
2022/11/19 05:15:38;;;;;;;18.17;17.47;;;8.60;99.90;;;;;;4991752;28;20475;-75
2022/11/19 05:18:05;;;;;;;18.30;17.53;;;8.60;99.90;;;;;;4992275;28;20531;-75
2022/11/19 05:20:32;;;;;;;17.33;16.53;;;8.60;99.90;;;;;;4992135;28;20442;-74
2022/11/19 05:22:58;;;;;;;17.40;16.70;;;8.60;99.90;;;;;;4991685;28;20453;-75
2022/11/19 05:25:25;;;;;;;17.47;16.57;;;8.60;99.90;;;;;;4991717;28;20446;-74
2022/11/19 05:27:53;;;;;;;16.80;16.10;;;8.60;99.90;;;;;;5011442;28;20905;-75
2022/11/19 05:30:20;;;;;;;16.67;15.97;;;8.50;99.90;;;;;;5011587;28;20796;-76
2022/11/19 05:32:47;;;;;;;17.17;16.37;;;8.60;99.90;;;;;;5011321;28;20543;-75
2022/11/19 05:35:14;;;;;;;16.80;16.10;;;8.60;99.90;;;;;;5011114;28;20446;-76
2022/11/19 05:37:41;;;;;;;17.47;16.67;;;8.60;99.90;;;;;;5011102;28;20457;-77
2022/11/19 05:40:09;;;;;;;17.13;16.23;;;8.60;99.90;;;;;;5011046;28;20962;-76
2022/11/19 05:42:35;;;;;;;18.03;17.20;;;8.50;99.90;;;;;;5011339;28;20446;-76
2022/11/19 05:45:04;;;;;;;17.57;16.47;;;8.60;99.90;;;;;;5011111;28;20940;-75
2022/11/19 05:47:31;;;;;;;17.40;16.60;;;8.50;99.90;;;;;;5011039;28;20452;-76
2022/11/19 05:49:58;;;;;;;16.87;16.00;;;8.50;99.90;;;;;;5010940;28;20707;-75
2022/11/19 05:52:25;;;;;;;16.63;15.93;;;8.50;99.90;;;;;;5010827;28;20486;-75
2022/11/19 05:54:52;;;;;;;16.80;16.00;;;8.50;99.90;;;;;;4994921;28;20446;-76
2022/11/19 05:57:18;;;;;;;16.10;15.50;;;8.50;99.90;;;;;;4981504;28;20964;-76
2022/11/19 05:59:45;;;;;;;16.20;15.40;;;8.60;99.90;;;;;;4979574;28;20443;-76
2022/11/19 06:02:13;;;;;;;16.60;15.67;;;8.60;99.90;;;;;;4979617;28;21046;-77
2022/11/19 06:04:40;;;;;;;15.37;14.77;;;8.70;99.90;;;;;;4981103;28;20450;-77
2022/11/19 06:07:07;;;;;;;14.60;14.10;;;8.70;99.90;;;;;;4978462;28;20451;-77
2022/11/19 06:09:33;;;;;;;15.17;14.57;;;8.70;99.90;;;;;;4971951;28;20458;-78
2022/11/19 06:12:00;;;;;;;15.00;14.40;;;8.70;99.90;;;;;;4971678;28;20487;-78
2022/11/19 06:14:27;;;;;;;16.10;15.40;;;8.70;99.90;;;;;;4971306;28;20475;-78
2022/11/19 06:16:55;;;;;;;15.73;15.03;;;8.70;99.90;;;;;;4971371;28;20482;-79
2022/11/19 06:19:25;;;;;;;15.27;14.77;;;8.70;99.90;;;;;;4971514;28;20471;-79
2022/11/19 06:21:52;;;;;;;16.20;15.50;;;8.70;99.90;;;;;;4971520;28;20929;-80
2022/11/19 06:24:19;;;;;;;15.40;14.80;;;8.70;99.90;;;;;;4971592;28;20452;-78
2022/11/19 06:26:46;;;;;;;16.20;15.40;;;8.80;99.90;;;;;;4971424;28;20454;-78
2022/11/19 06:29:14;;;;;;;15.37;14.67;;;8.70;99.90;;;;;;4971362;28;20440;-78
2022/11/19 06:31:41;;;;;;;15.43;14.83;;;8.70;99.90;;;;;;4971097;28;20486;-79
2022/11/19 06:34:08;;;;;;;16.00;15.40;;;8.70;99.90;;;;;;4971397;28;20454;-80
2022/11/19 06:36:37;;;;;;;15.93;15.30;;;8.70;99.90;;;;;;4971464;28;20451;-79
2022/11/19 06:39:04;;;;;;;16.40;15.70;;;8.60;99.90;;;;;;4971419;28;20464;-78
2022/11/19 06:41:30;;;;;;;16.43;15.60;;;8.60;99.90;;;;;;4971251;28;20447;-77
2022/11/19 06:43:57;;;;;;;16.97;16.27;;;8.60;99.90;;;;;;4971075;28;20815;-79
2022/11/19 06:46:24;;;;;;;18.27;17.40;;;8.60;99.90;;;;;;4970974;28;20460;-79
2022/11/19 06:48:51;;;;;;;17.23;16.43;;;8.60;99.90;;;;;;4971064;28;20933;-78
2022/11/19 06:51:17;;;;;;;17.40;16.60;;;8.70;99.90;;;;;;4970853;28;20964;-79
2022/11/19 06:53:46;;;;;;;18.27;17.10;;;8.70;99.90;;;;;;4970886;28;20933;-79
2022/11/19 06:56:12;;;;;;;18.00;17.10;;;8.60;99.90;;;;;;4970931;28;20451;-78
2022/11/19 06:58:39;;;;;;;18.10;17.20;;;8.70;99.90;;;;;;4970586;28;20452;-79
2022/11/19 07:01:06;;;;;;;16.73;16.03;;;8.70;99.90;;;;;;4970791;28;20448;-78
2022/11/19 07:03:33;;;;;;;18.27;17.33;;;8.80;99.90;;;;;;4970823;28;20542;-79
2022/11/19 07:06:01;;;;;;;16.83;16.13;;;8.80;99.90;;;;;;4970799;28;20462;-78
2022/11/19 07:08:32;;;;;;;17.03;16.23;;;8.80;99.90;;;;;;4970628;28;20467;-78
2022/11/19 07:11:00;;;;;;;16.73;15.83;;;8.90;99.90;;;;;;4970762;28;21009;-78
2022/11/19 07:13:55;;;;;;;16.53;15.73;;;9.10;99.90;;;;;;4970556;28;20856;-78
2022/11/19 07:16:14;;;;;;;17.50;16.70;;;9.10;99.90;;;;;;4970068;28;20566;-78
2022/11/19 07:18:40;;;;;;;17.47;16.67;;;9.10;99.90;;;;;;4970662;28;20777;-76
2022/11/19 07:21:07;;;;;;;17.73;16.93;;;9.10;99.90;;;;;;4970123;28;20447;-78
2022/11/19 07:23:34;;;;;;;18.40;17.60;;;9.00;99.90;;;;;;4970801;28;20459;-78
2022/11/19 07:26:02;;;;;;;18.23;17.33;;;9.00;99.90;;;;;;4970624;28;20817;-78
2022/11/19 07:28:29;;;;;;;19.23;18.23;;;9.10;99.90;;;;;;4970318;28;20452;-78
2022/11/19 07:30:55;;;;;;;21.00;19.57;;;9.00;99.90;;;;;;4970631;28;20459;-78
2022/11/19 07:33:22;;;;;;;20.73;19.43;;;8.90;99.90;;;;;;4970454;28;20526;-76
2022/11/19 07:35:49;;;;;;;20.33;19.13;;;8.80;99.90;;;;;;4970766;28;20455;-76
2022/11/19 07:38:16;;;;;;;21.40;20.23;;;8.80;99.90;;;;;;4970468;28;20448;-77
2022/11/19 07:40:42;;;;;;;21.00;19.70;;;8.70;99.90;;;;;;4970212;28;20466;-77
2022/11/19 07:43:09;;;;;;;19.43;18.30;;;8.70;99.90;;;;;;4970213;28;20459;-76
2022/11/19 07:45:37;;;;;;;18.33;17.37;;;8.60;99.90;;;;;;4970251;28;21023;-78
2022/11/19 07:48:04;;;;;;;17.47;16.57;;;8.70;99.90;;;;;;4970620;28;20478;-79
2022/11/19 07:50:31;;;;;;;18.67;17.73;;;8.80;99.90;;;;;;4970196;28;20808;-78
2022/11/19 07:52:58;;;;;;;17.93;17.10;;;8.90;99.90;;;;;;4970172;28;20862;-79
2022/11/19 07:55:25;;;;;;;17.13;16.23;;;9.00;99.90;;;;;;4970048;28;20456;-78
2022/11/19 07:57:53;;;;;;;15.90;15.30;;;9.20;99.90;;;;;;4970451;28;20829;-78
2022/11/19 08:00:21;;;;;;;15.70;15.00;;;9.30;99.90;;;;;;4970371;28;20463;-76
2022/11/19 08:02:49;;;;;;;15.30;14.60;;;9.40;99.90;;;;;;4971508;28;20447;-78
2022/11/19 08:05:16;;;;;;;15.33;14.73;;;9.60;99.90;;;;;;4970023;28;20463;-77
2022/11/19 08:07:43;;;;;;;15.07;14.37;;;9.90;99.90;;;;;;4969982;28;20981;-76
2022/11/19 08:10:11;;;;;;;15.43;14.73;;;10.20;99.90;;;;;;4969893;28;20447;-76
2022/11/19 08:12:37;;;;;;;14.83;14.23;;;10.30;99.90;;;;;;4970217;28;20487;-78
2022/11/19 08:15:05;;;;;;;15.03;14.43;;;10.20;99.90;;;;;;4970197;28;20535;-75
2022/11/19 08:20:18;;;;;;;15.40;14.50;;;10.20;99.90;;;;;;4970232;28;20430;-77
2022/11/19 08:22:44;;;;;;;14.57;13.97;;;10.20;99.90;;;;;;4969958;28;20929;-74
2022/11/19 08:25:11;;;;;;;14.10;13.43;;;10.30;99.90;;;;;;4969960;28;20454;-75
2022/11/19 08:27:38;;;;;;;14.40;13.80;;;10.40;99.90;;;;;;4969980;28;20459;-75
2022/11/19 08:30:05;;;;;;;13.80;13.30;;;10.40;99.90;;;;;;4970048;28;20451;-74
2022/11/19 08:32:36;;;;;;;13.83;13.23;;;10.40;99.90;;;;;;4970230;28;21019;-74
2022/11/19 08:35:03;;;;;;;13.40;12.90;;;10.40;99.90;;;;;;4973194;28;20938;-76
2022/11/19 08:37:29;;;;;;;13.87;13.27;;;10.40;99.90;;;;;;4973086;28;20456;-75
2022/11/19 08:40:47;;;;;;;14.40;13.70;;;10.40;99.90;;;;;;4973178;28;20487;-81
2022/11/19 08:43:13;;;;;;;15.00;14.30;;;10.40;99.90;;;;;;4943959;28;20460;-81
2022/11/19 08:45:40;;;;;;;14.63;14.03;;;10.50;99.90;;;;;;4972855;28;20450;-74
2022/11/19 08:48:09;;;;;;;13.83;13.30;;;10.60;99.90;;;;;;4972792;28;20212;-76
2022/11/19 08:50:36;;;;;;;13.33;12.83;;;10.60;99.90;;;;;;4972981;28;20538;-76
2022/11/19 08:53:05;;;;;;;12.83;12.43;;;10.60;99.90;;;;;;4972896;28;20487;-81
2022/11/19 08:55:33;;;;;;;13.33;12.83;;;10.70;99.90;;;;;;4972745;28;20448;-83
2022/11/19 08:58:01;;;;;;;13.07;12.57;;;11.00;99.90;;;;;;4972742;28;20835;-84
2022/11/19 09:00:28;;;;;;;11.90;11.50;;;11.20;99.90;;;;;;4972427;28;20456;-83
2022/11/19 09:02:55;;;;;;;12.60;12.00;;;11.50;99.90;;;;;;4977030;28;20470;-81
2022/11/19 09:05:23;;;;;;;12.73;12.23;;;11.80;99.90;;;;;;4986654;28;20447;-82
2022/11/19 09:07:50;;;;;;;13.27;12.77;;;11.90;99.90;;;;;;4975492;28;20444;-81
2022/11/19 09:10:17;;;;;;;12.00;11.50;;;12.20;99.90;;;;;;4983495;28;20462;-82
2022/11/19 09:12:44;;;;;;;12.20;11.80;;;12.30;99.90;;;;;;4989903;28;20494;-83
2022/11/19 09:15:11;;;;;;;12.30;11.90;;;12.20;99.90;;;;;;4991703;28;20993;-81
2022/11/19 09:17:38;;;;;;;13.10;12.60;;;12.40;99.90;;;;;;4991500;28;20486;-81
2022/11/19 09:20:06;;;;;;;14.20;12.60;;;12.50;99.90;;;;;;4991847;28;20462;-81
2022/11/19 09:22:34;;;;;;;11.83;11.43;;;12.60;99.90;;;;;;4997713;28;20461;-81
2022/11/19 09:25:01;;;;;;;12.20;11.80;;;12.80;99.90;;;;;;5011155;28;20469;-81
2022/11/19 09:27:28;;;;;;;11.47;11.07;;;13.10;99.90;;;;;;5010994;28;20450;-81
2022/11/19 09:29:55;;;;;;;11.50;11.10;;;13.50;99.90;;;;;;5010901;28;20450;-81
2022/11/19 09:32:22;;;;;;;11.90;11.40;;;13.60;99.90;;;;;;5011203;28;20493;-81
2022/11/19 09:34:48;;;;;;;12.27;11.77;;;13.70;99.90;;;;;;5011407;28;20821;-82
2022/11/19 09:37:15;;;;;;;11.60;11.20;;;13.80;99.90;;;;;;5010842;28;20450;-82
2022/11/19 09:39:44;;;;;;;11.83;11.33;;;14.00;99.90;;;;;;5010689;28;20477;-83
2022/11/19 09:42:16;;;;;;;11.77;11.33;;;13.90;99.90;;;;;;5010897;28;21213;-83
2022/11/19 09:44:59;;;;;;;11.87;11.47;;;13.80;99.90;;;;;;5010400;28;20442;-83
2022/11/19 09:47:35;;;;;;;12.80;12.30;;;13.20;99.90;;;;;;5010710;28;20677;-83
2022/11/19 09:50:11;;;;;;;12.00;11.60;;;13.10;99.90;;;;;;5010988;28;20449;-83
2022/11/19 09:52:59;;;;;;;12.67;12.23;;;13.00;99.90;;;;;;5010734;28;20495;-84
2022/11/19 09:55:31;;;;;;;12.57;12.17;;;12.40;99.90;;;;;;5010675;28;20705;-86
2022/11/19 09:58:00;;;;;;;12.40;12.00;;;12.30;99.90;;;;;;5010798;28;20549;-86
2022/11/19 10:00:29;;;;;;;11.90;11.50;;;12.40;99.90;;;;;;5010810;28;21052;-88
2022/11/19 10:02:57;;;;;;;12.20;11.80;;;12.20;99.90;;;;;;5010711;28;20629;-85
2022/11/19 10:05:31;;;;;;;13.00;12.40;;;12.10;99.90;;;;;;5010903;28;20827;-86
2022/11/19 10:08:09;;;;;;;13.23;12.73;;;12.00;99.90;;;;;;5010350;28;20447;-85
2022/11/19 10:10:41;;;;;;;11.90;11.50;;;12.00;99.90;;;;;;5010618;28;20542;-86
2022/11/19 10:13:32;;;;;;;12.03;11.63;;;11.70;99.90;;;;;;5010225;28;20605;-86
2022/11/19 10:16:16;;;;;;;12.73;12.23;;;11.60;99.90;;;;;;5010433;28;20478;-87
2022/11/19 10:18:53;;;;;;;12.60;12.20;;;11.60;99.90;;;;;;5010791;28;20441;-85
2022/11/19 10:21:28;;;;;;;12.43;12.03;;;11.70;99.90;;;;;;5009081;28;20461;-86
2022/11/19 10:24:03;;;;;;;13.20;12.60;;;11.70;99.90;;;;;;5010098;28;20446;-87
2022/11/19 10:26:35;;;;;;;12.70;12.30;;;11.70;99.90;;;;;;5009946;28;20445;-88
2022/11/19 10:29:04;;;;;;;12.23;11.63;;;11.80;99.90;;;;;;5009982;28;20925;-87
2022/11/19 10:31:45;;;;;;;11.87;11.37;;;11.80;99.90;;;;;;5010390;28;20448;-88
2022/11/19 10:34:18;;;;;;;11.80;11.40;;;11.80;99.90;;;;;;5011693;28;20485;-88
2022/11/19 10:36:54;;;;;;;11.80;11.40;;;11.90;99.90;;;;;;5010849;28;20453;-89
2022/11/19 10:39:31;;;;;;;12.17;11.77;;;12.00;99.90;;;;;;5010514;28;20783;-88
2022/11/19 10:52:06;;;;;;;12.20;11.63;;;12.40;99.90;;;;;;4995279;28;20530;-90
2022/11/19 11:01:23;;;;;;;12.10;11.53;;;12.90;99.90;;;;;;4914221;28;20556;-88
2022/11/19 11:03:57;;;;;;;13.70;13.20;;;13.00;99.90;;;;;;5009826;28;20449;-83
2022/11/19 11:06:24;;;;;;;14.27;13.77;;;12.40;99.90;;;;;;5009483;28;20453;-80
2022/11/19 11:08:54;;;;;;;14.83;14.23;;;12.00;99.90;;;;;;5009603;28;20816;-82
2022/11/19 11:14:50;;;;;;;14.60;14.10;;;11.80;99.90;;;;;;5009534;28;20450;-83
2022/11/19 11:16:58;;;;;;;14.90;14.30;;;11.30;99.90;;;;;;5009238;28;20472;-85
2022/11/19 11:19:25;;;;;;;14.20;13.60;;;11.40;99.90;;;;;;5009192;28;20511;-83
2022/11/19 11:21:53;;;;;;;14.70;14.10;;;11.30;99.90;;;;;;5009357;28;20454;-85
2022/11/19 11:24:22;;;;;;;14.17;13.53;;;11.40;99.90;;;;;;5009525;28;20453;-84
2022/11/19 11:27:09;;;;;;;13.50;12.90;;;11.40;99.90;;;;;;5009645;28;20458;-87
2022/11/19 11:29:38;;;;;;;12.43;11.90;;;11.20;99.90;;;;;;5009574;28;20935;-89
2022/11/19 12:24:50;;;;;;;13.50;13.00;;;11.20;99.90;;;;;;4889652;29;20880;-84
2022/11/19 12:27:27;;;;;;;16.37;15.47;;;11.20;99.90;;;;;;4903335;28;20452;-80
2022/11/19 12:30:04;;;;;;;17.87;16.77;;;11.00;99.90;;;;;;4983782;28;20450;-77
2022/11/19 12:32:50;;;;;;;19.03;18.03;;;10.70;99.90;;;;;;4992350;28;20454;-75
2022/11/19 12:35:30;;;;;;;21.47;20.67;;;10.40;99.90;;;;;;4972605;28;20930;-76
2022/11/19 12:38:25;;;;;;;22.90;21.80;;;10.10;99.90;;;;;;4972695;28;20461;-78
2022/11/19 12:41:04;;;;;;;23.57;22.17;;;10.10;99.90;;;;;;4974672;28;20452;-79
2022/11/19 12:43:53;;;;;;;22.20;21.27;;;10.10;99.90;;;;;;4990703;28;20929;-81
2022/11/19 12:46:38;;;;;;;23.73;22.73;;;10.20;99.90;;;;;;4992417;28;20447;-80
2022/11/19 12:49:43;;;;;;;22.93;21.90;;;10.40;99.90;;;;;;4992331;28;20780;-80
2022/11/19 12:52:29;;;;;;;23.50;22.50;;;10.30;99.90;;;;;;4989901;28;20458;-78
2022/11/19 12:55:05;;;;;;;23.90;22.50;;;10.40;99.90;;;;;;4991863;28;21166;-78
2022/11/19 12:57:47;;;;;;;25.37;23.90;;;11.30;99.90;;;;;;4992119;28;20447;-77
2022/11/19 13:00:18;;;;;;;25.90;24.57;;;10.30;99.90;;;;;;4992002;28;20517;-76
2022/11/19 13:03:00;;;;;;;25.10;24.00;;;10.40;99.90;;;;;;4991821;28;20505;-76
2022/11/19 13:05:38;;;;;;;25.87;24.57;;;10.30;99.90;;;;;;4991974;28;20459;-76
2022/11/19 13:08:11;;;;;;;25.90;24.40;;;10.20;99.90;;;;;;4991968;28;20450;-77
2022/11/19 13:10:44;;;;;;;26.27;24.63;;;10.20;99.90;;;;;;4991983;28;20465;-77
2022/11/19 13:13:16;;;;;;;24.47;23.03;;;10.20;99.90;;;;;;4991925;28;20577;-78
2022/11/19 13:15:46;;;;;;;24.17;22.87;;;10.20;99.90;;;;;;4991568;28;20467;-79
2022/11/19 13:18:17;;;;;;;24.80;23.70;;;10.20;99.90;;;;;;4983449;28;20456;-80
2022/11/19 13:20:48;;;;;;;24.20;23.00;;;10.10;99.90;;;;;;4986701;28;20475;-79
2022/11/19 13:23:19;;;;;;;22.83;21.83;;;10.10;99.90;;;;;;4973778;28;21026;-78
2022/11/19 13:25:54;;;;;;;22.00;21.17;;;10.10;99.90;;;;;;4976144;28;20446;-79
2022/11/19 13:28:26;;;;;;;22.63;21.60;;;9.90;99.90;;;;;;4991859;28;20450;-78
2022/11/19 13:30:58;;;;;;;22.10;21.20;;;9.90;99.90;;;;;;4991488;28;20454;-78
2022/11/19 13:33:28;;;;;;;23.20;21.90;;;10.00;99.90;;;;;;4991551;28;20483;-78
2022/11/19 13:36:02;;;;;;;22.30;21.40;;;9.90;99.90;;;;;;4974540;28;20881;-77
2022/11/19 13:38:43;;;;;;;21.53;20.43;;;9.90;99.90;;;;;;4972114;28;20458;-78
2022/11/19 13:41:16;;;;;;;21.70;20.70;;;9.70;99.90;;;;;;4971788;28;20456;-78
2022/11/19 13:46:34;;;;;;;20.80;19.87;;;9.70;99.90;;;;;;4971749;28;20486;-78
2022/11/19 13:49:06;;;;;;;20.70;19.80;;;9.70;99.90;;;;;;4971539;28;20801;-79
2022/11/19 13:51:38;;;;;;;21.60;20.50;;;9.80;99.90;;;;;;4976919;28;20451;-79
2022/11/19 13:54:07;;;;;;;20.07;19.27;;;9.90;99.90;;;;;;4991132;28;20478;-79
2022/11/19 13:56:43;;;;;;;18.60;17.87;;;10.00;99.90;;;;;;4991272;28;20812;-80
2022/11/19 13:59:29;;;;;;;20.20;19.10;;;9.90;99.90;;;;;;4990877;28;20458;-81
2022/11/19 14:02:20;;;;;;;19.20;18.40;;;9.90;99.90;;;;;;4990921;28;20446;-81
2022/11/19 14:05:09;;;;;;;18.33;17.63;;;10.00;99.90;;;;;;4981030;28;20530;-81
2022/11/19 14:07:48;;;;;;;18.63;17.83;;;10.00;99.90;;;;;;4991020;28;20565;-82
2022/11/19 14:10:22;;;;;;;17.80;17.00;;;10.00;99.90;;;;;;4990784;28;20873;-82
2022/11/19 14:13:15;;;;;;;17.73;16.93;;;10.10;99.90;;;;;;4991056;28;20450;-82
2022/11/19 14:27:36;;;;;;;14.73;14.10;;;10.60;99.90;;;;;;4971015;28;20936;-79
2022/11/19 14:30:05;;;;;;;14.60;14.00;;;10.50;99.90;;;;;;4970888;28;20759;-80
2022/11/19 14:32:48;;;;;;;14.10;13.50;;;10.50;99.90;;;;;;4971032;28;20455;-80
2022/11/19 14:35:38;;;;;;;14.30;13.60;;;10.70;99.90;;;;;;4970903;28;20483;-78
2022/11/19 14:38:34;;;;;;;14.03;13.53;;;10.70;99.90;;;;;;4971051;28;20447;-77
2022/11/19 14:41:27;;;;;;;14.90;14.13;;;10.60;99.90;;;;;;4971061;28;20459;-78
2022/11/19 14:44:21;;;;;;;14.17;13.57;;;10.70;99.90;;;;;;4970363;28;20938;-77
2022/11/19 14:46:49;;;;;;;15.27;14.50;;;10.70;99.90;;;;;;4960916;28;20950;-76
2022/11/19 14:49:26;;;;;;;14.57;13.87;;;10.80;99.90;;;;;;4970713;28;20460;-76
2022/11/19 14:51:55;;;;;;;14.70;14.10;;;10.70;99.90;;;;;;4970955;28;20451;-77
2022/11/19 14:54:32;;;;;;;14.83;14.20;;;10.60;99.90;;;;;;4970512;28;20487;-78
2022/11/19 14:57:14;;;;;;;15.30;14.50;;;10.60;99.90;;;;;;4970484;28;20451;-77
2022/11/19 14:59:47;;;;;;;16.30;15.40;;;10.40;99.90;;;;;;4970778;28;20452;-78
2022/11/19 15:02:22;;;;;;;60.70;43.00;;;10.50;99.90;;;;;;4967970;28;21046;-77
2022/11/19 15:04:59;;;;;;;17.03;15.93;;;10.40;99.90;;;;;;4970270;28;20793;-78
2022/11/19 15:07:35;;;;;;;15.57;14.77;;;10.30;99.90;;;;;;4970274;28;21019;-78
2022/11/19 15:10:10;;;;;;;14.50;13.83;;;10.40;99.90;;;;;;4970420;28;20463;-78
2022/11/19 15:12:49;;;;;;;14.90;14.10;;;10.30;99.90;;;;;;4970258;28;20457;-79
2022/11/19 15:15:37;;;;;;;15.23;14.53;;;10.40;99.90;;;;;;4969983;28;20487;-79
2022/11/19 15:18:20;;;;;;;14.57;13.87;;;10.50;99.90;;;;;;4970287;28;20452;-79
2022/11/19 15:21:04;;;;;;;14.90;14.20;;;10.50;99.90;;;;;;4970034;28;20860;-78
2022/11/19 15:23:37;;;;;;;14.93;14.20;;;10.50;99.90;;;;;;4970106;28;20462;-79
2022/11/19 15:26:12;;;;;;;14.53;13.90;;;10.60;99.90;;;;;;4978741;28;20446;-79
2022/11/19 15:28:51;;;;;;;16.10;15.13;;;10.70;99.90;;;;;;4989353;28;20804;-80